sensor_id;sensor_type;location;lat;lon;timestamp;pressure;altitude;pressure_sealevel;temperature;humidity
39295;BME280;52361;52.100;5.248;2023-03-23T00:02:49;100072.0;;;13.38;100.0
39295;BME280;52361;52.100;5.248;2023-03-23T00:04:25;100056.0;;;13.38;100.0
39295;BME280;52361;52.100;5.248;2023-03-23T00:06:01;100062.0;;;13.38;100.0
39295;BME280;52361;52.100;5.248;2023-03-23T00:09:15;100061.0;;;13.32;100.0
39295;BME280;52361;52.100;5.248;2023-03-23T00:10:51;100071.0;;;13.38;100.0
39295;BME280;52361;52.100;5.248;2023-03-23T00:12:30;100071.0;;;13.42;100.0
39295;BME280;52361;52.100;5.248;2023-03-23T00:14:08;100073.0;;;13.43;100.0
39295;BME280;52361;52.100;5.248;2023-03-23T00:17:22;100075.0;;;13.46;100.0
39295;BME280;52361;52.100;5.248;2023-03-23T00:19:00;100069.0;;;13.47;100.0
39295;BME280;52361;52.100;5.248;2023-03-23T00:20:38;100073.0;;;13.52;100.0
39295;BME280;52361;52.100;5.248;2023-03-23T00:23:53;100072.0;;;13.55;100.0
39295;BME280;52361;52.100;5.248;2023-03-23T00:25:29;100060.0;;;13.51;100.0
39295;BME280;52361;52.100;5.248;2023-03-23T00:27:05;100062.0;;;13.48;100.0
39295;BME280;52361;52.100;5.248;2023-03-23T00:30:18;100059.0;;;13.48;100.0
39295;BME280;52361;52.100;5.248;2023-03-23T00:31:53;100062.0;;;13.59;100.0
39295;BME280;52361;52.100;5.248;2023-03-23T00:33:31;100059.0;;;13.62;100.0
39295;BME280;52361;52.100;5.248;2023-03-23T00:35:09;100063.0;;;13.6;100.0
39295;BME280;52361;52.100;5.248;2023-03-23T00:38:23;100057.0;;;13.66;100.0
39295;BME280;52361;52.100;5.248;2023-03-23T00:40:00;100042.0;;;13.61;100.0
39295;BME280;52361;52.100;5.248;2023-03-23T00:41:36;100044.0;;;13.63;100.0
39295;BME280;52361;52.100;5.248;2023-03-23T00:44:49;100041.0;;;13.64;100.0
39295;BME280;52361;52.100;5.248;2023-03-23T00:46:25;100040.0;;;13.65;100.0
39295;BME280;52361;52.100;5.248;2023-03-23T00:48:01;100037.0;;;13.67;100.0
39295;BME280;52361;52.100;5.248;2023-03-23T00:51:14;100041.0;;;13.7;100.0
39295;BME280;52361;52.100;5.248;2023-03-23T00:52:50;100032.0;;;13.67;100.0
39295;BME280;52361;52.100;5.248;2023-03-23T00:54:27;100021.0;;;13.65;100.0
39295;BME280;52361;52.100;5.248;2023-03-23T00:56:05;100023.0;;;13.67;100.0
39295;BME280;52361;52.100;5.248;2023-03-23T00:59:17;100026.0;;;13.63;100.0
39295;BME280;52361;52.100;5.248;2023-03-23T01:00:54;100020.0;;;13.71;100.0
39295;BME280;52361;52.100;5.248;2023-03-23T01:02:30;100023.0;;;13.7;100.0
39295;BME280;52361;52.100;5.248;2023-03-23T01:05:45;100020.0;;;13.69;100.0
39295;BME280;52361;52.100;5.248;2023-03-23T01:07:22;100011.0;;;13.73;100.0
39295;BME280;52361;52.100;5.248;2023-03-23T01:08:58;100013.0;;;13.76;100.0
39295;BME280;52361;52.100;5.248;2023-03-23T01:10:35;100014.0;;;13.74;100.0
39295;BME280;52361;52.100;5.248;2023-03-23T01:13:47;100009.0;;;13.74;100.0
39295;BME280;52361;52.100;5.248;2023-03-23T01:15:23;100017.0;;;13.75;100.0
39295;BME280;52361;52.100;5.248;2023-03-23T01:16:59;100022.0;;;13.68;100.0
39295;BME280;52361;52.100;5.248;2023-03-23T01:20:14;100030.0;;;13.77;100.0
39295;BME280;52361;52.100;5.248;2023-03-23T01:21:51;100024.0;;;13.82;100.0
39295;BME280;52361;52.100;5.248;2023-03-23T01:23:27;100014.0;;;13.8;100.0
39295;BME280;52361;52.100;5.248;2023-03-23T01:26:40;100002.0;;;13.79;100.0
39295;BME280;52361;52.100;5.248;2023-03-23T01:28:16;99994.0;;;13.79;100.0
39295;BME280;52361;52.100;5.248;2023-03-23T01:29:52;100001.0;;;13.79;100.0
39295;BME280;52361;52.100;5.248;2023-03-23T01:33:04;99993.0;;;13.77;100.0
39295;BME280;52361;52.100;5.248;2023-03-23T01:34:40;99992.0;;;13.72;100.0
39295;BME280;52361;52.100;5.248;2023-03-23T01:36:19;99989.0;;;13.77;100.0
39295;BME280;52361;52.100;5.248;2023-03-23T01:37:57;99983.0;;;13.82;100.0
39295;BME280;52361;52.100;5.248;2023-03-23T01:41:12;99996.0;;;13.71;100.0
39295;BME280;52361;52.100;5.248;2023-03-23T01:42:50;99983.0;;;13.7;100.0
39295;BME280;52361;52.100;5.248;2023-03-23T01:45:25;99980.0;;;13.67;100.0
39295;BME280;52361;52.100;5.248;2023-03-23T01:47:01;99974.0;;;13.6;100.0
39295;BME280;52361;52.100;5.248;2023-03-23T01:48:39;99988.0;;;13.71;100.0
39295;BME280;52361;52.100;5.248;2023-03-23T01:51:54;99980.0;;;13.7;100.0
39295;BME280;52361;52.100;5.248;2023-03-23T01:55:16;99988.0;;;13.78;100.0
39295;BME280;52361;52.100;5.248;2023-03-23T01:56:56;99984.0;;;13.79;100.0
39295;BME280;52361;52.100;5.248;2023-03-23T02:00:14;99980.0;;;13.76;100.0
39295;BME280;52361;52.100;5.248;2023-03-23T02:01:51;99976.0;;;13.72;100.0
39295;BME280;52361;52.100;5.248;2023-03-23T02:03:29;99977.0;;;13.68;100.0
39295;BME280;52361;52.100;5.248;2023-03-23T02:05:10;99982.0;;;13.69;100.0
39295;BME280;52361;52.100;5.248;2023-03-23T02:08:27;99971.0;;;13.78;100.0
39295;BME280;52361;52.100;5.248;2023-03-23T02:10:05;99965.0;;;13.73;100.0
39295;BME280;52361;52.100;5.248;2023-03-23T02:11:41;99965.0;;;13.72;100.0
39295;BME280;52361;52.100;5.248;2023-03-23T02:14:55;99964.0;;;13.69;100.0
39295;BME280;52361;52.100;5.248;2023-03-23T02:16:34;99972.0;;;13.73;100.0
39295;BME280;52361;52.100;5.248;2023-03-23T02:18:32;99970.0;;;13.79;100.0
39295;BME280;52361;52.100;5.248;2023-03-23T02:20:23;99966.0;;;13.7;100.0
39295;BME280;52361;52.100;5.248;2023-03-23T02:22:22;99973.0;;;13.7;100.0
39295;BME280;52361;52.100;5.248;2023-03-23T02:25:40;99965.0;;;13.7;100.0
39295;BME280;52361;52.100;5.248;2023-03-23T02:27:48;99974.0;;;13.67;100.0
39295;BME280;52361;52.100;5.248;2023-03-23T02:30:10;99980.0;;;13.69;100.0
39295;BME280;52361;52.100;5.248;2023-03-23T02:32:10;99976.0;;;13.75;100.0
39295;BME280;52361;52.100;5.248;2023-03-23T02:33:53;99968.0;;;13.78;100.0
39295;BME280;52361;52.100;5.248;2023-03-23T02:35:34;99971.0;;;13.82;100.0
39295;BME280;52361;52.100;5.248;2023-03-23T02:37:14;99961.0;;;13.75;100.0
39295;BME280;52361;52.100;5.248;2023-03-23T02:39:02;99962.0;;;13.72;100.0
39295;BME280;52361;52.100;5.248;2023-03-23T02:40:43;99965.0;;;13.71;100.0
39295;BME280;52361;52.100;5.248;2023-03-23T02:44:04;99974.0;;;13.81;100.0
39295;BME280;52361;52.100;5.248;2023-03-23T02:45:43;99968.0;;;13.82;100.0
39295;BME280;52361;52.100;5.248;2023-03-23T02:47:22;99960.0;;;13.82;100.0
39295;BME280;52361;52.100;5.248;2023-03-23T02:49:01;99963.0;;;13.84;100.0
39295;BME280;52361;52.100;5.248;2023-03-23T02:52:24;99966.0;;;13.87;100.0
39295;BME280;52361;52.100;5.248;2023-03-23T02:54:04;99965.0;;;13.87;100.0
39295;BME280;52361;52.100;5.248;2023-03-23T02:55:43;99967.0;;;13.9;100.0
39295;BME280;52361;52.100;5.248;2023-03-23T02:57:20;99970.0;;;13.88;100.0
39295;BME280;52361;52.100;5.248;2023-03-23T03:00:36;99965.0;;;13.92;100.0
39295;BME280;52361;52.100;5.248;2023-03-23T03:02:14;99957.0;;;13.87;100.0
39295;BME280;52361;52.100;5.248;2023-03-23T03:03:54;99955.0;;;13.91;100.0
39295;BME280;52361;52.100;5.248;2023-03-23T03:09:30;99957.0;;;13.89;100.0
39295;BME280;52361;52.100;5.248;2023-03-23T03:11:12;99951.0;;;14.0;100.0
39295;BME280;52361;52.100;5.248;2023-03-23T03:12:55;99963.0;;;13.95;100.0
39295;BME280;52361;52.100;5.248;2023-03-23T03:14:37;99963.0;;;13.99;100.0
39295;BME280;52361;52.100;5.248;2023-03-23T03:16:23;99960.0;;;14.0;100.0
39295;BME280;52361;52.100;5.248;2023-03-23T03:19:49;99952.0;;;13.93;100.0
39295;BME280;52361;52.100;5.248;2023-03-23T03:21:31;99949.0;;;13.92;100.0
39295;BME280;52361;52.100;5.248;2023-03-23T03:24:50;99945.0;;;13.93;100.0
39295;BME280;52361;52.100;5.248;2023-03-23T03:28:06;99949.0;;;14.04;100.0
39295;BME280;52361;52.100;5.248;2023-03-23T03:29:44;99949.0;;;14.02;100.0
39295;BME280;52361;52.100;5.248;2023-03-23T03:31:23;99936.0;;;13.99;100.0
39295;BME280;52361;52.100;5.248;2023-03-23T03:36:19;99948.0;;;14.06;100.0
39295;BME280;52361;52.100;5.248;2023-03-23T03:37:57;99940.0;;;14.03;100.0
39295;BME280;52361;52.100;5.248;2023-03-23T03:39:41;99943.0;;;13.99;100.0
39295;BME280;52361;52.100;5.248;2023-03-23T03:41:18;99928.0;;;14.0;100.0
39295;BME280;52361;52.100;5.248;2023-03-23T03:44:32;99922.0;;;13.94;100.0
39295;BME280;52361;52.100;5.248;2023-03-23T03:46:09;99932.0;;;13.96;100.0
39295;BME280;52361;52.100;5.248;2023-03-23T03:47:45;99939.0;;;13.97;100.0
39295;BME280;52361;52.100;5.248;2023-03-23T03:50:57;99941.0;;;13.95;100.0
39295;BME280;52361;52.100;5.248;2023-03-23T03:52:34;99943.0;;;13.92;100.0
39295;BME280;52361;52.100;5.248;2023-03-23T03:54:10;99946.0;;;14.04;100.0
39295;BME280;52361;52.100;5.248;2023-03-23T03:57:23;99941.0;;;14.03;100.0
39295;BME280;52361;52.100;5.248;2023-03-23T03:58:59;99942.0;;;14.02;100.0
39295;BME280;52361;52.100;5.248;2023-03-23T04:00:35;99936.0;;;14.01;100.0
39295;BME280;52361;52.100;5.248;2023-03-23T04:02:11;99937.0;;;14.01;100.0
39295;BME280;52361;52.100;5.248;2023-03-23T04:05:23;99945.0;;;14.04;100.0
39295;BME280;52361;52.100;5.248;2023-03-23T04:06:59;99942.0;;;14.04;100.0
39295;BME280;52361;52.100;5.248;2023-03-23T04:08:36;99947.0;;;14.07;100.0
39295;BME280;52361;52.100;5.248;2023-03-23T04:13:25;99948.0;;;14.05;100.0
39295;BME280;52361;52.100;5.248;2023-03-23T04:15:01;99944.0;;;14.07;100.0
39295;BME280;52361;52.100;5.248;2023-03-23T04:18:15;99945.0;;;14.07;100.0
39295;BME280;52361;52.100;5.248;2023-03-23T04:19:53;99943.0;;;14.12;100.0
39295;BME280;52361;52.100;5.248;2023-03-23T04:21:29;99946.0;;;14.1;100.0
39295;BME280;52361;52.100;5.248;2023-03-23T04:23:06;99955.0;;;14.09;100.0
39295;BME280;52361;52.100;5.248;2023-03-23T04:26:18;99945.0;;;14.11;100.0
39295;BME280;52361;52.100;5.248;2023-03-23T04:27:54;99957.0;;;14.05;100.0
39295;BME280;52361;52.100;5.248;2023-03-23T04:29:30;99948.0;;;14.03;100.0
39295;BME280;52361;52.100;5.248;2023-03-23T04:32:42;99951.0;;;14.05;100.0
39295;BME280;52361;52.100;5.248;2023-03-23T04:34:19;99967.0;;;14.09;100.0
39295;BME280;52361;52.100;5.248;2023-03-23T04:35:57;99963.0;;;14.13;100.0
39295;BME280;52361;52.100;5.248;2023-03-23T04:39:14;99966.0;;;14.1;100.0
39295;BME280;52361;52.100;5.248;2023-03-23T04:40:51;99960.0;;;14.06;100.0
39295;BME280;52361;52.100;5.248;2023-03-23T04:44:07;99976.0;;;14.13;100.0
39295;BME280;52361;52.100;5.248;2023-03-23T04:47:20;99978.0;;;14.14;100.0
39295;BME280;52361;52.100;5.248;2023-03-23T04:48:56;99978.0;;;14.06;100.0
39295;BME280;52361;52.100;5.248;2023-03-23T04:50:32;99976.0;;;14.06;100.0
39295;BME280;52361;52.100;5.248;2023-03-23T04:53:45;99980.0;;;14.07;100.0
39295;BME280;52361;52.100;5.248;2023-03-23T04:55:21;99980.0;;;14.03;100.0
39295;BME280;52361;52.100;5.248;2023-03-23T04:56:57;99974.0;;;14.05;100.0
39295;BME280;52361;52.100;5.248;2023-03-23T05:00:11;99983.0;;;14.07;100.0
39295;BME280;52361;52.100;5.248;2023-03-23T05:01:47;99983.0;;;14.08;100.0
39295;BME280;52361;52.100;5.248;2023-03-23T05:03:23;99994.0;;;13.95;100.0
39295;BME280;52361;52.100;5.248;2023-03-23T05:04:59;99984.0;;;13.89;100.0
39295;BME280;52361;52.100;5.248;2023-03-23T05:08:11;99987.0;;;13.9;100.0
39295;BME280;52361;52.100;5.248;2023-03-23T05:09:47;99985.0;;;13.89;100.0
39295;BME280;52361;52.100;5.248;2023-03-23T05:11:24;99988.0;;;13.87;100.0
39295;BME280;52361;52.100;5.248;2023-03-23T05:14:40;99993.0;;;13.83;100.0
39295;BME280;52361;52.100;5.248;2023-03-23T05:16:16;99998.0;;;13.9;100.0
39295;BME280;52361;52.100;5.248;2023-03-23T05:17:52;99994.0;;;13.89;100.0
39295;BME280;52361;52.100;5.248;2023-03-23T05:21:04;99988.0;;;13.88;100.0
39295;BME280;52361;52.100;5.248;2023-03-23T05:22:41;99992.0;;;13.81;100.0
39295;BME280;52361;52.100;5.248;2023-03-23T05:24:17;99989.0;;;13.82;100.0
39295;BME280;52361;52.100;5.248;2023-03-23T05:25:54;99993.0;;;13.84;100.0
39295;BME280;52361;52.100;5.248;2023-03-23T05:29:07;99991.0;;;13.75;100.0
39295;BME280;52361;52.100;5.248;2023-03-23T05:30:43;100010.0;;;13.79;100.0
39295;BME280;52361;52.100;5.248;2023-03-23T05:32:19;100016.0;;;13.83;100.0
39295;BME280;52361;52.100;5.248;2023-03-23T05:35:31;100016.0;;;13.72;100.0
39295;BME280;52361;52.100;5.248;2023-03-23T05:37:09;100017.0;;;13.73;100.0
39295;BME280;52361;52.100;5.248;2023-03-23T05:38:45;100017.0;;;13.69;100.0
39295;BME280;52361;52.100;5.248;2023-03-23T05:41:57;100026.0;;;13.72;100.0
39295;BME280;52361;52.100;5.248;2023-03-23T05:43:34;100026.0;;;13.77;100.0
39295;BME280;52361;52.100;5.248;2023-03-23T05:45:10;100017.0;;;13.62;100.0
39295;BME280;52361;52.100;5.248;2023-03-23T05:46:47;100015.0;;;13.7;100.0
39295;BME280;52361;52.100;5.248;2023-03-23T05:51:37;100016.0;;;13.65;100.0
39295;BME280;52361;52.100;5.248;2023-03-23T05:53:13;100027.0;;;13.67;100.0
39295;BME280;52361;52.100;5.248;2023-03-23T05:56:25;100031.0;;;13.51;100.0
39295;BME280;52361;52.100;5.248;2023-03-23T05:58:01;100039.0;;;13.56;100.0
39295;BME280;52361;52.100;5.248;2023-03-23T05:59:37;100045.0;;;13.51;100.0
39295;BME280;52361;52.100;5.248;2023-03-23T06:02:50;100051.0;;;13.43;100.0
39295;BME280;52361;52.100;5.248;2023-03-23T06:04:30;100048.0;;;13.31;100.0
39295;BME280;52361;52.100;5.248;2023-03-23T06:06:09;100057.0;;;13.26;100.0
39295;BME280;52361;52.100;5.248;2023-03-23T06:07:46;100037.0;;;13.22;100.0
39295;BME280;52361;52.100;5.248;2023-03-23T06:10:58;100033.0;;;13.2;100.0
39295;BME280;52361;52.100;5.248;2023-03-23T06:12:35;100043.0;;;13.24;100.0
39295;BME280;52361;52.100;5.248;2023-03-23T06:14:11;100046.0;;;13.18;100.0
39295;BME280;52361;52.100;5.248;2023-03-23T06:17:24;100050.0;;;13.18;100.0
39295;BME280;52361;52.100;5.248;2023-03-23T06:19:00;100060.0;;;13.18;100.0
39295;BME280;52361;52.100;5.248;2023-03-23T06:20:36;100055.0;;;13.04;100.0
39295;BME280;52361;52.100;5.248;2023-03-23T06:23:49;100059.0;;;12.94;100.0
39295;BME280;52361;52.100;5.248;2023-03-23T06:25:25;100055.0;;;13.05;100.0
39295;BME280;52361;52.100;5.248;2023-03-23T06:27:01;100056.0;;;13.08;100.0
39295;BME280;52361;52.100;5.248;2023-03-23T06:28:38;100055.0;;;13.13;100.0
39295;BME280;52361;52.100;5.248;2023-03-23T06:31:53;100057.0;;;13.17;100.0
39295;BME280;52361;52.100;5.248;2023-03-23T06:33:32;100071.0;;;13.18;100.0
39295;BME280;52361;52.100;5.248;2023-03-23T06:35:10;100076.0;;;13.17;100.0
39295;BME280;52361;52.100;5.248;2023-03-23T06:39:59;100078.0;;;13.12;100.0
39295;BME280;52361;52.100;5.248;2023-03-23T06:41:36;100084.0;;;13.14;100.0
39295;BME280;52361;52.100;5.248;2023-03-23T06:43:13;100083.0;;;13.15;100.0
39295;BME280;52361;52.100;5.248;2023-03-23T06:46:25;100090.0;;;13.16;100.0
39295;BME280;52361;52.100;5.248;2023-03-23T06:48:01;100088.0;;;13.18;100.0
39295;BME280;52361;52.100;5.248;2023-03-23T06:49:37;100093.0;;;13.18;100.0
39295;BME280;52361;52.100;5.248;2023-03-23T06:52:50;100100.0;;;13.21;100.0
39295;BME280;52361;52.100;5.248;2023-03-23T06:54:27;100099.0;;;13.03;100.0
39295;BME280;52361;52.100;5.248;2023-03-23T06:59:15;100091.0;;;12.78;100.0
39295;BME280;52361;52.100;5.248;2023-03-23T07:00:54;100100.0;;;12.82;100.0
39295;BME280;52361;52.100;5.248;2023-03-23T07:02:29;100087.0;;;12.97;100.0
39295;BME280;52361;52.100;5.248;2023-03-23T07:05:41;100093.0;;;12.93;100.0
39295;BME280;52361;52.100;5.248;2023-03-23T07:07:22;100101.0;;;12.9;100.0
39295;BME280;52361;52.100;5.248;2023-03-23T07:08:58;100084.0;;;12.97;100.0
39295;BME280;52361;52.100;5.248;2023-03-23T07:10:34;100095.0;;;13.03;100.0
39295;BME280;52361;52.100;5.248;2023-03-23T07:13:46;100096.0;;;12.99;100.0
39295;BME280;52361;52.100;5.248;2023-03-23T07:15:22;100099.0;;;12.94;100.0
39295;BME280;52361;52.100;5.248;2023-03-23T07:16:58;100093.0;;;12.92;100.0
39295;BME280;52361;52.100;5.248;2023-03-23T07:20:11;100099.0;;;12.89;100.0
39295;BME280;52361;52.100;5.248;2023-03-23T07:21:48;100095.0;;;12.91;100.0
39295;BME280;52361;52.100;5.248;2023-03-23T07:23:24;100108.0;;;12.93;100.0
39295;BME280;52361;52.100;5.248;2023-03-23T07:26:36;100105.0;;;12.93;100.0
39295;BME280;52361;52.100;5.248;2023-03-23T07:28:12;100105.0;;;12.96;100.0
39295;BME280;52361;52.100;5.248;2023-03-23T07:29:48;100108.0;;;13.0;100.0
39295;BME280;52361;52.100;5.248;2023-03-23T07:31:26;100109.0;;;13.04;100.0
39295;BME280;52361;52.100;5.248;2023-03-23T07:34:41;100111.0;;;13.01;100.0
39295;BME280;52361;52.100;5.248;2023-03-23T07:36:17;100115.0;;;13.07;100.0
39295;BME280;52361;52.100;5.248;2023-03-23T07:37:53;100113.0;;;13.04;100.0
39295;BME280;52361;52.100;5.248;2023-03-23T07:41:07;100121.0;;;13.14;100.0
39295;BME280;52361;52.100;5.248;2023-03-23T07:42:44;100123.0;;;13.17;100.0
39295;BME280;52361;52.100;5.248;2023-03-23T07:45:58;100136.0;;;13.21;100.0
39295;BME280;52361;52.100;5.248;2023-03-23T07:49:10;100135.0;;;13.16;100.0
39295;BME280;52361;52.100;5.248;2023-03-23T07:50:46;100132.0;;;13.32;100.0
39295;BME280;52361;52.100;5.248;2023-03-23T07:52:23;100133.0;;;13.43;100.0
39295;BME280;52361;52.100;5.248;2023-03-23T07:55:35;100139.0;;;13.43;100.0
39295;BME280;52361;52.100;5.248;2023-03-23T07:57:11;100135.0;;;13.36;100.0
39295;BME280;52361;52.100;5.248;2023-03-23T07:58:48;100124.0;;;13.42;100.0
39295;BME280;52361;52.100;5.248;2023-03-23T08:02:02;100121.0;;;13.22;100.0
39295;BME280;52361;52.100;5.248;2023-03-23T08:03:38;100121.0;;;13.28;100.0
39295;BME280;52361;52.100;5.248;2023-03-23T08:05:14;100131.0;;;13.33;100.0
39295;BME280;52361;52.100;5.248;2023-03-23T08:10:04;100150.0;;;13.36;100.0
39295;BME280;52361;52.100;5.248;2023-03-23T08:11:40;100148.0;;;13.26;100.0
39295;BME280;52361;52.100;5.248;2023-03-23T08:13:18;100142.0;;;13.31;100.0
39295;BME280;52361;52.100;5.248;2023-03-23T08:16:30;100147.0;;;13.38;100.0
39295;BME280;52361;52.100;5.248;2023-03-23T08:18:06;100142.0;;;13.35;100.0
39295;BME280;52361;52.100;5.248;2023-03-23T08:19:43;100146.0;;;13.38;100.0
39295;BME280;52361;52.100;5.248;2023-03-23T08:22:56;100144.0;;;13.44;100.0
39295;BME280;52361;52.100;5.248;2023-03-23T08:24:32;100143.0;;;13.54;100.0
39295;BME280;52361;52.100;5.248;2023-03-23T08:26:09;100149.0;;;13.67;100.0
39295;BME280;52361;52.100;5.248;2023-03-23T08:29:23;100141.0;;;13.76;100.0
39295;BME280;52361;52.100;5.248;2023-03-23T08:31:00;100155.0;;;13.83;100.0
39295;BME280;52361;52.100;5.248;2023-03-23T08:32:36;100152.0;;;14.02;100.0
39295;BME280;52361;52.100;5.248;2023-03-23T08:34:13;100159.0;;;14.18;100.0
39295;BME280;52361;52.100;5.248;2023-03-23T08:37:32;100158.0;;;14.18;100.0
39295;BME280;52361;52.100;5.248;2023-03-23T08:39:08;100156.0;;;14.18;100.0
39295;BME280;52361;52.100;5.248;2023-03-23T08:40:44;100161.0;;;14.12;100.0
39295;BME280;52361;52.100;5.248;2023-03-23T08:43:56;100158.0;;;14.02;100.0
39295;BME280;52361;52.100;5.248;2023-03-23T08:45:32;100157.0;;;13.93;100.0
39295;BME280;52361;52.100;5.248;2023-03-23T08:47:08;100167.0;;;14.02;100.0
39295;BME280;52361;52.100;5.248;2023-03-23T08:48:45;100171.0;;;14.05;100.0
39295;BME280;52361;52.100;5.248;2023-03-23T08:52:01;100171.0;;;14.03;100.0
39295;BME280;52361;52.100;5.248;2023-03-23T08:53:39;100173.0;;;14.09;100.0
39295;BME280;52361;52.100;5.248;2023-03-23T08:55:16;100176.0;;;14.14;100.0
39295;BME280;52361;52.100;5.248;2023-03-23T08:58:29;100184.0;;;14.17;100.0
39295;BME280;52361;52.100;5.248;2023-03-23T09:00:07;100182.0;;;14.29;100.0
39295;BME280;52361;52.100;5.248;2023-03-23T09:01:45;100182.0;;;14.33;100.0
39295;BME280;52361;52.100;5.248;2023-03-23T09:03:21;100175.0;;;14.43;100.0
39295;BME280;52361;52.100;5.248;2023-03-23T09:06:34;100187.0;;;14.4;100.0
39295;BME280;52361;52.100;5.248;2023-03-23T09:08:10;100187.0;;;14.47;100.0
39295;BME280;52361;52.100;5.248;2023-03-23T09:09:47;100183.0;;;14.6;100.0
39295;BME280;52361;52.100;5.248;2023-03-23T09:12:59;100183.0;;;14.75;100.0
39295;BME280;52361;52.100;5.248;2023-03-23T09:14:36;100197.0;;;14.88;100.0
39295;BME280;52361;52.100;5.248;2023-03-23T09:16:13;100192.0;;;14.89;100.0
39295;BME280;52361;52.100;5.248;2023-03-23T09:19:28;100189.0;;;14.99;100.0
39295;BME280;52361;52.100;5.248;2023-03-23T09:21:05;100189.0;;;15.02;100.0
39295;BME280;52361;52.100;5.248;2023-03-23T09:22:43;100191.0;;;14.93;100.0
39295;BME280;52361;52.100;5.248;2023-03-23T09:27:37;100184.0;;;15.23;100.0
39295;BME280;52361;52.100;5.248;2023-03-23T09:29:14;100186.0;;;15.31;100.0
39295;BME280;52361;52.100;5.248;2023-03-23T09:30:50;100181.0;;;15.26;100.0
39295;BME280;52361;52.100;5.248;2023-03-23T09:34:02;100189.0;;;15.37;100.0
39295;BME280;52361;52.100;5.248;2023-03-23T09:35:38;100194.0;;;15.68;100.0
39295;BME280;52361;52.100;5.248;2023-03-23T09:37:15;100197.0;;;15.93;100.0
39295;BME280;52361;52.100;5.248;2023-03-23T09:40:33;100201.0;;;15.96;96.7
39295;BME280;52361;52.100;5.248;2023-03-23T09:42:30;100206.0;;;15.87;94.45
39295;BME280;52361;52.100;5.248;2023-03-23T09:44:19;100203.0;;;15.87;100.0
39295;BME280;52361;52.100;5.248;2023-03-23T09:48:15;100202.0;;;15.79;93.57
39295;BME280;52361;52.100;5.248;2023-03-23T09:50:10;100208.0;;;15.75;98.17
39295;BME280;52361;52.100;5.248;2023-03-23T09:51:50;100206.0;;;15.65;96.35
39295;BME280;52361;52.100;5.248;2023-03-23T09:55:15;100205.0;;;15.58;95.43
39295;BME280;52361;52.100;5.248;2023-03-23T09:56:54;100207.0;;;15.67;96.53
39295;BME280;52361;52.100;5.248;2023-03-23T09:58:35;100215.0;;;15.83;98.48
39295;BME280;52361;52.100;5.248;2023-03-23T10:00:21;100222.0;;;15.93;98.6
39295;BME280;52361;52.100;5.248;2023-03-23T10:02:11;100226.0;;;15.73;92.99
39295;BME280;52361;52.100;5.248;2023-03-23T10:05:53;100230.0;;;15.74;93.44
39295;BME280;52361;52.100;5.248;2023-03-23T10:07:30;100225.0;;;15.84;93.04
39295;BME280;52361;52.100;5.248;2023-03-23T10:09:08;100235.0;;;15.94;89.74
39295;BME280;52361;52.100;5.248;2023-03-23T10:10:57;100236.0;;;15.88;88.98
39295;BME280;52361;52.100;5.248;2023-03-23T10:12:42;100239.0;;;15.87;89.18
39295;BME280;52361;52.100;5.248;2023-03-23T10:16:19;100240.0;;;15.93;89.11
39295;BME280;52361;52.100;5.248;2023-03-23T10:18:08;100241.0;;;16.18;89.66
39295;BME280;52361;52.100;5.248;2023-03-23T10:19:53;100243.0;;;16.09;90.97
39295;BME280;52361;52.100;5.248;2023-03-23T10:21:54;100250.0;;;15.95;86.29
39295;BME280;52361;52.100;5.248;2023-03-23T10:23:43;100244.0;;;15.94;88.81
39295;BME280;52361;52.100;5.248;2023-03-23T10:25:29;100247.0;;;16.21;87.76
39295;BME280;52361;52.100;5.248;2023-03-23T10:27:17;100255.0;;;16.48;86.68
39295;BME280;52361;52.100;5.248;2023-03-23T10:30:39;100249.0;;;16.5;85.82
39295;BME280;52361;52.100;5.248;2023-03-23T10:32:19;100251.0;;;16.45;86.15
39295;BME280;52361;52.100;5.248;2023-03-23T10:34:02;100253.0;;;16.57;88.1
39295;BME280;52361;52.100;5.248;2023-03-23T10:35:56;100252.0;;;16.77;84.35
39295;BME280;52361;52.100;5.248;2023-03-23T10:37:37;100258.0;;;17.04;86.14
39295;BME280;52361;52.100;5.248;2023-03-23T10:40:59;100250.0;;;16.9;79.27
39295;BME280;52361;52.100;5.248;2023-03-23T10:42:41;100259.0;;;16.86;84.76
39295;BME280;52361;52.100;5.248;2023-03-23T10:44:20;100253.0;;;16.66;79.11
39295;BME280;52361;52.100;5.248;2023-03-23T10:46:01;100262.0;;;16.68;80.97
39295;BME280;52361;52.100;5.248;2023-03-23T10:49:35;100258.0;;;16.75;82.81
39295;BME280;52361;52.100;5.248;2023-03-23T10:51:17;100256.0;;;17.06;82.11
39295;BME280;52361;52.100;5.248;2023-03-23T10:52:56;100243.0;;;17.52;82.41
39295;BME280;52361;52.100;5.248;2023-03-23T10:54:37;100248.0;;;17.52;79.47
39295;BME280;52361;52.100;5.248;2023-03-23T10:58:04;100243.0;;;17.47;77.27
39295;BME280;52361;52.100;5.248;2023-03-23T10:59:41;100250.0;;;17.63;79.05
39295;BME280;52361;52.100;5.248;2023-03-23T11:01:18;100256.0;;;17.53;75.69
39295;BME280;52361;52.100;5.248;2023-03-23T11:03:00;100266.0;;;17.27;76.3
39295;BME280;52361;52.100;5.248;2023-03-23T11:06:20;100260.0;;;17.34;75.2
39295;BME280;52361;52.100;5.248;2023-03-23T11:07:59;100265.0;;;17.5;74.33
39295;BME280;52361;52.100;5.248;2023-03-23T11:09:37;100274.0;;;17.5;75.38
39295;BME280;52361;52.100;5.248;2023-03-23T11:11:16;100270.0;;;17.0;75.47
39295;BME280;52361;52.100;5.248;2023-03-23T11:14:35;100269.0;;;16.73;75.97
39295;BME280;52361;52.100;5.248;2023-03-23T11:16:22;100273.0;;;16.57;77.48
39295;BME280;52361;52.100;5.248;2023-03-23T11:18:02;100264.0;;;16.48;79.41
39295;BME280;52361;52.100;5.248;2023-03-23T11:19:39;100263.0;;;16.27;78.08
39295;BME280;52361;52.100;5.248;2023-03-23T11:22:52;100258.0;;;16.31;78.58
39295;BME280;52361;52.100;5.248;2023-03-23T11:24:30;100247.0;;;16.29;81.11
39295;BME280;52361;52.100;5.248;2023-03-23T11:26:13;100258.0;;;16.84;79.45
39295;BME280;52361;52.100;5.248;2023-03-23T11:27:50;100243.0;;;17.29;74.44
39295;BME280;52361;52.100;5.248;2023-03-23T11:31:06;100245.0;;;17.66;77.47
39295;BME280;52361;52.100;5.248;2023-03-23T11:32:44;100244.0;;;18.0;75.72
39295;BME280;52361;52.100;5.248;2023-03-23T11:34:22;100249.0;;;18.43;78.22
39295;BME280;52361;52.100;5.248;2023-03-23T11:37:41;100255.0;;;18.71;70.69